Loma, North Dakota
Current Conditions -  °F | °C
As of 3:55 AM on Wednesday 26 Nov 2014 (Local Time) from KD55 Reporting Station
Broken Clouds Broken Clouds  
Wind Chill: -21°   Ceiling: 5500
Heat Index: -2°   Visibility: 10mi
Dew Point: -8°   Wind: 13mph
Humidity: 78%   Direction: 20°NNE
Pressure: 30.26"   Gusts: NA
Location:  48.6307°N, 98.5917°W
Report Text: KD55 260955Z AUTO 02011KT 10SM FEW002 BKN055 M19/M22 A3026 RMK AO2
Loading
Personal Weather Stations






























Interactive Weather Map New forecast layout! Learn more

10-Day Weather Forecast

Advertisements
Track Severe Weather on mobile